TAF KTOL
KTOL 072320Z 0800/0824 23006KT P6SM SCT050 BKN090=
METAR KTOL
WC KTOL
WS KTOL
WV KTOL